PWSweather.com
Personal Weather Stations
Station Observations
KCAOCEAN4
Jeffries Ranch, Oceanside, CA 92057

Jeffries RanchOceanside, CA 92057

Lat: 33.2463208, Lon: -117.25335080000002

Elevation: 207

Station Type: Davis Vantage Vue

jeffriesranchweather.com

High Low Average
Temperature 68.7°F20.4°C 47.8°F8.8°C 57.3°F14.1°C
Dew Point 50.9°F10.5°C 43.0°F6.1°C 47.0°F8.3°C
Winds 6.9 mph 11.1 kmh Calm Calm 2.0 mph SSE3.2 kmh SSE
Wind Gusts 12.1 mph19.5 kmh -- 5.0 mph8.0 kmh
Humidity 87% 49% 70%
Pressure 30.11 in1019.6 mb 29.98 in1015.2 mb -
Precipitation 0.00 in0.0 mm - -
Hour Temp Dew Point Humidity Winds Wind Gusts Pressure Precip Precip Rate Daily Precip Total
12:04 AM 50.9°F10.5°C 44.6°F7.0°C 79% 0.9 mph NE1.4 kmh NE 4.9 mph7.9 kmh 30.09 in1019.0 mb 0.00 in0.0 mm 0.00 in0.0 mm 0.00 in0.0 mm
12:14 AM 50.9°F10.5°C 44.6°F7.0°C 79% Calm Calm 2.0 mph3.2 kmh 30.10 in1019.3 mb 0.00 in0.0 mm 0.00 in0.0 mm 0.00 in0.0 mm
12:24 AM 51.1°F10.6°C 44.8°F7.1°C 79% Calm Calm 2.0 mph3.2 kmh 30.10 in1019.3 mb 0.00 in0.0 mm 0.00 in0.0 mm 0.00 in0.0 mm
12:34 AM 51.1°F10.6°C 44.4°F6.9°C 78% Calm Calm 2.0 mph3.2 kmh 30.10 in1019.3 mb 0.00 in0.0 mm 0.00 in0.0 mm 0.00 in0.0 mm
12:44 AM 51.1°F10.6°C 44.4°F6.9°C 78% Calm Calm 2.0 mph3.2 kmh 30.11 in1019.6 mb 0.00 in0.0 mm 0.00 in0.0 mm 0.00 in0.0 mm
12:54 AM 50.9°F10.5°C 44.6°F7.0°C 79% Calm Calm 0.9 mph1.4 kmh 30.10 in1019.3 mb 0.00 in0.0 mm 0.00 in0.0 mm 0.00 in0.0 mm
01:04 AM 50.9°F10.5°C 44.6°F7.0°C 79% 0.9 mph ENE1.4 kmh ENE 2.0 mph3.2 kmh 30.09 in1019.0 mb 0.00 in0.0 mm 0.00 in0.0 mm 0.00 in0.0 mm
01:14 AM 50.9°F10.5°C 44.6°F7.0°C 79% 0.9 mph E1.4 kmh E 2.0 mph3.2 kmh 30.09 in1019.0 mb 0.00 in0.0 mm 0.00 in0.0 mm 0.00 in0.0 mm
01:24 AM 50.7°F10.4°C 44.4°F6.9°C 79% Calm Calm 2.0 mph3.2 kmh 30.09 in1019.0 mb 0.00 in0.0 mm 0.00 in0.0 mm 0.00 in0.0 mm
01:34 AM 50.7°F10.4°C 44.4°F6.9°C 79% 0.9 mph NE1.4 kmh NE 3.0 mph4.8 kmh 30.09 in1019.0 mb 0.00 in0.0 mm 0.00 in0.0 mm 0.00 in0.0 mm
01:44 AM 50.9°F10.5°C 44.6°F7.0°C 79% 2.0 mph NE3.2 kmh NE 5.0 mph8.0 kmh 30.09 in1019.0 mb 0.00 in0.0 mm 0.00 in0.0 mm 0.00 in0.0 mm
01:54 AM 50.9°F10.5°C 44.6°F7.0°C 79% 2.0 mph E3.2 kmh E 6.0 mph9.7 kmh 30.09 in1019.0 mb 0.00 in0.0 mm 0.00 in0.0 mm 0.00 in0.0 mm
02:04 AM 51.1°F10.6°C 44.8°F7.1°C 79% 2.0 mph NE3.2 kmh NE 5.0 mph8.0 kmh 30.09 in1019.0 mb 0.00 in0.0 mm 0.00 in0.0 mm 0.00 in0.0 mm
02:14 AM 50.9°F10.5°C 44.6°F7.0°C 79% 0.9 mph NE1.4 kmh NE 2.9 mph4.7 kmh 30.09 in1019.0 mb 0.00 in0.0 mm 0.00 in0.0 mm 0.00 in0.0 mm
02:24 AM 50.7°F10.4°C 44.4°F6.9°C 79% 0.9 mph ENE1.4 kmh ENE 4.0 mph6.4 kmh 30.09 in1019.0 mb 0.00 in0.0 mm 0.00 in0.0 mm 0.00 in0.0 mm
02:34 AM 50.4°F10.2°C 44.4°F6.9°C 80% 0.9 mph SE1.4 kmh SE 2.9 mph4.7 kmh 30.08 in1018.6 mb 0.00 in0.0 mm 0.00 in0.0 mm 0.00 in0.0 mm
02:44 AM 50.2°F10.1°C 44.2°F6.8°C 80% 0.9 mph E1.4 kmh E 2.9 mph4.7 kmh 30.07 in1018.3 mb 0.00 in0.0 mm 0.00 in0.0 mm 0.00 in0.0 mm
02:54 AM 49.8°F9.9°C 44.2°F6.8°C 81% 2.0 mph E3.2 kmh E 4.0 mph6.4 kmh 30.07 in1018.3 mb 0.00 in0.0 mm 0.00 in0.0 mm 0.00 in0.0 mm
03:04 AM 49.5°F9.7°C 43.9°F6.6°C 81% 2.0 mph E3.2 kmh E 2.9 mph4.7 kmh 30.06 in1017.9 mb 0.00 in0.0 mm 0.00 in0.0 mm 0.00 in0.0 mm
03:14 AM 49.3°F9.6°C 44.1°F6.7°C 82% Calm Calm 0.9 mph1.4 kmh 30.06 in1017.9 mb 0.00 in0.0 mm 0.00 in0.0 mm 0.00 in0.0 mm
03:24 AM 48.7°F9.3°C 43.9°F6.6°C 83% Calm Calm -- 30.06 in1017.9 mb 0.00 in0.0 mm 0.00 in0.0 mm 0.00 in0.0 mm
03:34 AM 48.4°F9.1°C 43.7°F6.5°C 84% Calm Calm 2.9 mph4.7 kmh 30.06 in1017.9 mb 0.00 in0.0 mm 0.00 in0.0 mm 0.00 in0.0 mm
03:44 AM 48.2°F9.0°C 43.3°F6.3°C 83% 0.9 mph ENE1.4 kmh ENE 3.0 mph4.8 kmh 30.05 in1017.6 mb 0.00 in0.0 mm 0.00 in0.0 mm 0.00 in0.0 mm
03:54 AM 47.8°F8.8°C 43.0°F6.1°C 83% 2.0 mph E3.2 kmh E 4.0 mph6.4 kmh 30.04 in1017.3 mb 0.00 in0.0 mm 0.00 in0.0 mm 0.00 in0.0 mm
04:04 AM 47.8°F8.8°C 43.2°F6.2°C 84% 0.9 mph NE1.4 kmh NE 2.9 mph4.7 kmh 30.04 in1017.3 mb 0.00 in0.0 mm 0.00 in0.0 mm 0.00 in0.0 mm
04:14 AM 48.0°F8.9°C 43.2°F6.2°C 83% 0.9 mph ENE1.4 kmh ENE 5.0 mph8.0 kmh 30.04 in1017.3 mb 0.00 in0.0 mm 0.00 in0.0 mm 0.00 in0.0 mm
04:24 AM 48.0°F8.9°C 43.3°F6.3°C 84% 2.0 mph ENE3.2 kmh ENE 5.0 mph8.0 kmh 30.05 in1017.6 mb 0.00 in0.0 mm 0.00 in0.0 mm 0.00 in0.0 mm
04:34 AM 48.0°F8.9°C 43.2°F6.2°C 83% 2.9 mph NE4.7 kmh NE 4.9 mph7.9 kmh 30.05 in1017.6 mb 0.00 in0.0 mm 0.00 in0.0 mm 0.00 in0.0 mm
04:44 AM 48.0°F8.9°C 43.2°F6.2°C 83% 2.9 mph ENE4.7 kmh ENE 6.0 mph9.7 kmh 30.05 in1017.6 mb 0.00 in0.0 mm 0.00 in0.0 mm 0.00 in0.0 mm
04:54 AM 48.0°F8.9°C 43.2°F6.2°C 83% 2.9 mph E4.7 kmh E 4.9 mph7.9 kmh 30.05 in1017.6 mb 0.00 in0.0 mm 0.00 in0.0 mm 0.00 in0.0 mm
05:04 AM 48.0°F8.9°C 43.2°F6.2°C 83% 2.0 mph ENE3.2 kmh ENE 4.9 mph7.9 kmh 30.05 in1017.6 mb 0.00 in0.0 mm 0.00 in0.0 mm 0.00 in0.0 mm
05:14 AM 47.8°F8.8°C 43.0°F6.1°C 83% 0.9 mph E1.4 kmh E 4.0 mph6.4 kmh 30.05 in1017.6 mb 0.00 in0.0 mm 0.00 in0.0 mm 0.00 in0.0 mm
05:24 AM 48.0°F8.9°C 43.2°F6.2°C 83% 2.0 mph ENE3.2 kmh ENE 4.0 mph6.4 kmh 30.05 in1017.6 mb 0.00 in0.0 mm 0.00 in0.0 mm 0.00 in0.0 mm
05:34 AM 48.4°F9.1°C 43.5°F6.4°C 83% 2.0 mph E3.2 kmh E 5.0 mph8.0 kmh 30.05 in1017.6 mb 0.00 in0.0 mm 0.00 in0.0 mm 0.00 in0.0 mm
05:44 AM 48.4°F9.1°C 43.2°F6.2°C 82% 2.0 mph ENE3.2 kmh ENE 4.0 mph6.4 kmh 30.06 in1017.9 mb 0.00 in0.0 mm 0.00 in0.0 mm 0.00 in0.0 mm
05:54 AM 48.4°F9.1°C 43.2°F6.2°C 82% 0.9 mph E1.4 kmh E 4.0 mph6.4 kmh 30.05 in1017.6 mb 0.00 in0.0 mm 0.00 in0.0 mm 0.00 in0.0 mm
06:04 AM 48.4°F9.1°C 43.2°F6.2°C 82% 2.0 mph ENE3.2 kmh ENE 4.0 mph6.4 kmh 30.05 in1017.6 mb 0.00 in0.0 mm 0.00 in0.0 mm 0.00 in0.0 mm
06:14 AM 48.0°F8.9°C 43.2°F6.2°C 83% 2.0 mph E3.2 kmh E 4.0 mph6.4 kmh 30.05 in1017.6 mb 0.00 in0.0 mm 0.00 in0.0 mm 0.00 in0.0 mm
06:24 AM 48.0°F8.9°C 43.2°F6.2°C 83% 2.0 mph ENE3.2 kmh ENE 4.0 mph6.4 kmh 30.05 in1017.6 mb 0.00 in0.0 mm 0.00 in0.0 mm 0.00 in0.0 mm
06:34 AM 48.2°F9.0°C 43.3°F6.3°C 83% 2.0 mph NE3.2 kmh NE 6.0 mph9.7 kmh 30.06 in1017.9 mb 0.00 in0.0 mm 0.00 in0.0 mm 0.00 in0.0 mm
06:44 AM 48.4°F9.1°C 43.2°F6.2°C 82% 2.0 mph E3.2 kmh E 4.9 mph7.9 kmh 30.06 in1017.9 mb 0.00 in0.0 mm 0.00 in0.0 mm 0.00 in0.0 mm
06:54 AM 48.6°F9.2°C 43.3°F6.3°C 82% 2.0 mph E3.2 kmh E 4.9 mph7.9 kmh 30.06 in1017.9 mb 0.00 in0.0 mm 0.00 in0.0 mm 0.00 in0.0 mm
07:04 AM 48.9°F9.4°C 43.3°F6.3°C 81% 2.0 mph NE3.2 kmh NE 4.9 mph7.9 kmh 30.07 in1018.3 mb 0.00 in0.0 mm 0.00 in0.0 mm 0.00 in0.0 mm
07:14 AM 49.1°F9.5°C 43.5°F6.4°C 81% 2.0 mph E3.2 kmh E 6.0 mph9.7 kmh 30.07 in1018.3 mb 0.00 in0.0 mm 0.00 in0.0 mm 0.00 in0.0 mm
07:24 AM 49.5°F9.7°C 43.9°F6.6°C 81% 2.0 mph ENE3.2 kmh ENE 4.9 mph7.9 kmh 30.07 in1018.3 mb 0.00 in0.0 mm 0.00 in0.0 mm 0.00 in0.0 mm
07:34 AM 49.8°F9.9°C 43.9°F6.6°C 80% 4.0 mph E6.4 kmh E 8.9 mph14.3 kmh 30.06 in1017.9 mb 0.00 in0.0 mm 0.00 in0.0 mm 0.00 in0.0 mm
07:44 AM 50.0°F10.0°C 44.1°F6.7°C 80% 6.0 mph NE9.7 kmh NE 11.0 mph17.7 kmh 30.07 in1018.3 mb 0.00 in0.0 mm 0.00 in0.0 mm 0.00 in0.0 mm
07:54 AM 50.5°F10.3°C 44.2°F6.8°C 79% 2.9 mph NE4.7 kmh NE 7.0 mph11.3 kmh 30.08 in1018.6 mb 0.00 in0.0 mm 0.00 in0.0 mm 0.00 in0.0 mm
08:04 AM 52.0°F11.1°C 45.0°F7.2°C 77% 2.0 mph NW3.2 kmh NW 6.0 mph9.7 kmh 30.09 in1019.0 mb 0.00 in0.0 mm 0.00 in0.0 mm 0.00 in0.0 mm
08:14 AM 53.8°F12.1°C 45.7°F7.6°C 74% Calm Calm 4.0 mph6.4 kmh 30.09 in1019.0 mb 0.00 in0.0 mm 0.00 in0.0 mm 0.00 in0.0 mm
08:24 AM 54.5°F12.5°C 46.0°F7.8°C 73% 2.0 mph NE3.2 kmh NE 5.0 mph8.0 kmh 30.09 in1019.0 mb 0.00 in0.0 mm 0.00 in0.0 mm 0.00 in0.0 mm
08:34 AM 55.6°F13.1°C 45.5°F7.5°C 69% 2.9 mph ENE4.7 kmh ENE 6.0 mph9.7 kmh 30.09 in1019.0 mb 0.00 in0.0 mm 0.00 in0.0 mm 0.00 in0.0 mm
08:44 AM 56.5°F13.6°C 46.0°F7.8°C 68% 2.0 mph NE3.2 kmh NE 6.0 mph9.7 kmh 30.09 in1019.0 mb 0.00 in0.0 mm 0.00 in0.0 mm 0.00 in0.0 mm
08:54 AM 57.6°F14.2°C 46.2°F7.9°C 66% 2.0 mph ENE3.2 kmh ENE 4.0 mph6.4 kmh 30.09 in1019.0 mb 0.00 in0.0 mm 0.00 in0.0 mm 0.00 in0.0 mm
09:04 AM 59.2°F15.1°C 46.6°F8.1°C 63% 2.0 mph NE3.2 kmh NE 4.0 mph6.4 kmh 30.09 in1019.0 mb 0.00 in0.0 mm 0.00 in0.0 mm 0.00 in0.0 mm
09:14 AM 60.6°F15.9°C 47.1°F8.4°C 61% 0.9 mph ENE1.4 kmh ENE 4.9 mph7.9 kmh 30.09 in1019.0 mb 0.00 in0.0 mm 0.00 in0.0 mm 0.00 in0.0 mm
09:24 AM 61.9°F16.6°C 47.5°F8.6°C 59% 0.9 mph ENE1.4 kmh ENE 2.9 mph4.7 kmh 30.09 in1019.0 mb 0.00 in0.0 mm 0.00 in0.0 mm 0.00 in0.0 mm
09:34 AM 63.3°F17.4°C 47.8°F8.8°C 57% Calm Calm 2.9 mph4.7 kmh 30.09 in1019.0 mb 0.00 in0.0 mm 0.00 in0.0 mm 0.00 in0.0 mm
09:44 AM 64.0°F17.8°C 48.9°F9.4°C 58% 0.9 mph W1.4 kmh W 4.0 mph6.4 kmh 30.09 in1019.0 mb 0.00 in0.0 mm 0.00 in0.0 mm 0.00 in0.0 mm
09:54 AM 64.0°F17.8°C 48.6°F9.2°C 57% 0.9 mph SW1.4 kmh SW 2.9 mph4.7 kmh 30.09 in1019.0 mb 0.00 in0.0 mm 0.00 in0.0 mm 0.00 in0.0 mm
10:04 AM 65.7°F18.7°C 49.1°F9.5°C 55% 0.9 mph WNW1.4 kmh WNW 2.9 mph4.7 kmh 30.09 in1019.0 mb 0.00 in0.0 mm 0.00 in0.0 mm 0.00 in0.0 mm
10:14 AM 65.5°F18.6°C 49.3°F9.6°C 56% 2.9 mph WNW4.7 kmh WNW 6.0 mph9.7 kmh 30.09 in1019.0 mb 0.00 in0.0 mm 0.00 in0.0 mm 0.00 in0.0 mm
10:24 AM 66.4°F19.1°C 49.6°F9.8°C 55% 2.0 mph NW3.2 kmh NW 6.0 mph9.7 kmh 30.09 in1019.0 mb 0.00 in0.0 mm 0.00 in0.0 mm 0.00 in0.0 mm
10:34 AM 66.7°F19.3°C 49.1°F9.5°C 53% 2.9 mph ESE4.7 kmh ESE 12.1 mph19.5 kmh 30.08 in1018.6 mb 0.00 in0.0 mm 0.00 in0.0 mm 0.00 in0.0 mm
10:44 AM 67.6°F19.8°C 49.5°F9.7°C 52% 0.9 mph SW1.4 kmh SW 6.0 mph9.7 kmh 30.08 in1018.6 mb 0.00 in0.0 mm 0.00 in0.0 mm 0.00 in0.0 mm
10:54 AM 67.5°F19.7°C 48.2°F9.0°C 50% 2.0 mph WSW3.2 kmh WSW 6.0 mph9.7 kmh 30.08 in1018.6 mb 0.00 in0.0 mm 0.00 in0.0 mm 0.00 in0.0 mm
11:04 AM 66.9°F19.4°C 48.7°F9.3°C 52% 2.9 mph NW4.7 kmh NW 8.1 mph13.0 kmh 30.08 in1018.6 mb 0.00 in0.0 mm 0.00 in0.0 mm 0.00 in0.0 mm
11:14 AM 67.5°F19.7°C 48.7°F9.3°C 51% 0.9 mph WNW1.4 kmh WNW 6.0 mph9.7 kmh 30.07 in1018.3 mb 0.00 in0.0 mm 0.00 in0.0 mm 0.00 in0.0 mm
11:24 AM 67.5°F19.7°C 50.7°F10.4°C 55% 2.9 mph WSW4.7 kmh WSW 8.1 mph13.0 kmh 30.06 in1017.9 mb 0.00 in0.0 mm 0.00 in0.0 mm 0.00 in0.0 mm
11:34 AM 66.7°F19.3°C 50.5°F10.3°C 56% 2.9 mph WSW4.7 kmh WSW 8.1 mph13.0 kmh 30.06 in1017.9 mb 0.00 in0.0 mm 0.00 in0.0 mm 0.00 in0.0 mm
11:44 AM 66.9°F19.4°C 50.7°F10.4°C 56% 4.0 mph SW6.4 kmh SW 6.9 mph11.1 kmh 30.06 in1017.9 mb 0.00 in0.0 mm 0.00 in0.0 mm 0.00 in0.0 mm
11:54 AM 66.6°F19.2°C 50.9°F10.5°C 57% 4.9 mph W7.9 kmh W 12.1 mph19.5 kmh 30.06 in1017.9 mb 0.00 in0.0 mm 0.00 in0.0 mm 0.00 in0.0 mm
12:04 PM 66.6°F19.2°C 50.9°F10.5°C 57% 6.0 mph WSW9.7 kmh WSW 10.1 mph16.3 kmh 30.05 in1017.6 mb 0.00 in0.0 mm 0.00 in0.0 mm 0.00 in0.0 mm
12:14 PM 66.0°F18.9°C 50.4°F10.2°C 57% 6.0 mph W9.7 kmh W 12.1 mph19.5 kmh 30.04 in1017.3 mb 0.00 in0.0 mm 0.00 in0.0 mm 0.00 in0.0 mm
12:24 PM 65.8°F18.8°C 50.2°F10.1°C 57% 6.9 mph WNW11.1 kmh WNW 11.0 mph17.7 kmh 30.04 in1017.3 mb 0.00 in0.0 mm 0.00 in0.0 mm 0.00 in0.0 mm
12:34 PM 65.7°F18.7°C 50.5°F10.3°C 58% 6.9 mph WNW11.1 kmh WNW 12.1 mph19.5 kmh 30.04 in1017.3 mb 0.00 in0.0 mm 0.00 in0.0 mm 0.00 in0.0 mm
12:44 PM 65.5°F18.6°C 50.4°F10.2°C 58% 6.9 mph WNW11.1 kmh WNW 12.1 mph19.5 kmh 30.04 in1017.3 mb 0.00 in0.0 mm 0.00 in0.0 mm 0.00 in0.0 mm
12:54 PM 65.1°F18.4°C 50.9°F10.5°C 60% 6.0 mph W9.7 kmh W 12.1 mph19.5 kmh 30.03 in1016.9 mb 0.00 in0.0 mm 0.00 in0.0 mm 0.00 in0.0 mm
01:04 PM 65.1°F18.4°C 49.5°F9.7°C 57% 6.0 mph W9.7 kmh W 11.0 mph17.7 kmh 30.03 in1016.9 mb 0.00 in0.0 mm 0.00 in0.0 mm 0.00 in0.0 mm
01:14 PM 65.1°F18.4°C 50.0°F10.0°C 58% 6.0 mph WSW9.7 kmh WSW 8.9 mph14.3 kmh 30.03 in1016.9 mb 0.00 in0.0 mm 0.00 in0.0 mm 0.00 in0.0 mm
01:24 PM 65.5°F18.6°C 50.7°F10.4°C 59% 4.9 mph W7.9 kmh W 10.1 mph16.3 kmh 30.02 in1016.6 mb 0.00 in0.0 mm 0.00 in0.0 mm 0.00 in0.0 mm
01:34 PM 65.8°F18.8°C 49.3°F9.6°C 55% 6.0 mph WNW9.7 kmh WNW 10.1 mph16.3 kmh 30.01 in1016.3 mb 0.00 in0.0 mm 0.00 in0.0 mm 0.00 in0.0 mm
01:44 PM 66.7°F19.3°C 49.6°F9.8°C 54% 4.0 mph NW6.4 kmh NW 11.0 mph17.7 kmh 30.01 in1016.3 mb 0.00 in0.0 mm 0.00 in0.0 mm 0.00 in0.0 mm
01:54 PM 66.7°F19.3°C 49.1°F9.5°C 53% 4.9 mph NW7.9 kmh NW 8.9 mph14.3 kmh 30.00 in1015.9 mb 0.00 in0.0 mm 0.00 in0.0 mm 0.00 in0.0 mm
02:04 PM 67.1°F19.5°C 48.9°F9.4°C 52% 6.0 mph WSW9.7 kmh WSW 11.0 mph17.7 kmh 30.00 in1015.9 mb 0.00 in0.0 mm 0.00 in0.0 mm 0.00 in0.0 mm
02:14 PM 67.8°F19.9°C 48.0°F8.9°C 49% 4.0 mph WNW6.4 kmh WNW 8.1 mph13.0 kmh 29.99 in1015.6 mb 0.00 in0.0 mm 0.00 in0.0 mm 0.00 in0.0 mm
02:24 PM 67.8°F19.9°C 48.0°F8.9°C 49% 4.9 mph W7.9 kmh W 10.1 mph16.3 kmh 29.99 in1015.6 mb 0.00 in0.0 mm 0.00 in0.0 mm 0.00 in0.0 mm
02:34 PM 68.7°F20.4°C 48.7°F9.3°C 49% 4.0 mph W6.4 kmh W 9.0 mph14.5 kmh 29.99 in1015.6 mb 0.00 in0.0 mm 0.00 in0.0 mm 0.00 in0.0 mm
02:44 PM 68.2°F20.1°C 48.9°F9.4°C 50% 4.0 mph WNW6.4 kmh WNW 8.9 mph14.3 kmh 30.00 in1015.9 mb 0.00 in0.0 mm 0.00 in0.0 mm 0.00 in0.0 mm
02:54 PM 67.6°F19.8°C 48.9°F9.4°C 51% 4.9 mph W7.9 kmh W 12.1 mph19.5 kmh 30.00 in1015.9 mb 0.00 in0.0 mm 0.00 in0.0 mm 0.00 in0.0 mm
03:04 PM 67.3°F19.6°C 48.0°F8.9°C 50% 4.0 mph WSW6.4 kmh WSW 8.9 mph14.3 kmh 30.00 in1015.9 mb 0.00 in0.0 mm 0.00 in0.0 mm 0.00 in0.0 mm
03:14 PM 66.9°F19.4°C 47.7°F8.7°C 50% 4.9 mph NW7.9 kmh NW 8.9 mph14.3 kmh 30.00 in1015.9 mb 0.00 in0.0 mm 0.00 in0.0 mm 0.00 in0.0 mm
03:24 PM 67.5°F19.7°C 48.7°F9.3°C 51% 4.0 mph WNW6.4 kmh WNW 8.1 mph13.0 kmh 29.99 in1015.6 mb 0.00 in0.0 mm 0.00 in0.0 mm 0.00 in0.0 mm
03:34 PM 68.0°F20.0°C 48.2°F9.0°C 49% 4.0 mph WNW6.4 kmh WNW 12.1 mph19.5 kmh 29.98 in1015.2 mb 0.00 in0.0 mm 0.00 in0.0 mm 0.00 in0.0 mm
03:45 PM 67.6°F19.8°C 48.4°F9.1°C 50% 4.0 mph WNW6.4 kmh WNW 8.9 mph14.3 kmh 29.98 in1015.2 mb 0.00 in0.0 mm 0.00 in0.0 mm 0.00 in0.0 mm
03:55 PM 67.3°F19.6°C 48.0°F8.9°C 50% 4.0 mph W6.4 kmh W 6.9 mph11.1 kmh 29.98 in1015.2 mb 0.00 in0.0 mm 0.00 in0.0 mm 0.00 in0.0 mm
04:05 PM 67.8°F19.9°C 48.6°F9.2°C 50% 2.9 mph NW4.7 kmh NW 6.0 mph9.7 kmh 29.98 in1015.2 mb 0.00 in0.0 mm 0.00 in0.0 mm 0.00 in0.0 mm
04:15 PM 67.5°F19.7°C 48.7°F9.3°C 51% 2.9 mph WNW4.7 kmh WNW 6.0 mph9.7 kmh 29.99 in1015.6 mb 0.00 in0.0 mm 0.00 in0.0 mm 0.00 in0.0 mm
04:25 PM 67.6°F19.8°C 48.9°F9.4°C 51% 2.0 mph WSW3.2 kmh WSW 6.0 mph9.7 kmh 29.99 in1015.6 mb 0.00 in0.0 mm 0.00 in0.0 mm 0.00 in0.0 mm
04:35 PM 66.9°F19.4°C 48.2°F9.0°C 51% 4.0 mph SW6.4 kmh SW 8.1 mph13.0 kmh 30.00 in1015.9 mb 0.00 in0.0 mm 0.00 in0.0 mm 0.00 in0.0 mm
04:45 PM 66.9°F19.4°C 48.7°F9.3°C 52% 2.0 mph SSE3.2 kmh SSE 6.0 mph9.7 kmh 30.00 in1015.9 mb 0.00 in0.0 mm 0.00 in0.0 mm 0.00 in0.0 mm
04:55 PM 66.0°F18.9°C 47.8°F8.8°C 52% 2.0 mph SW3.2 kmh SW 8.1 mph13.0 kmh 29.99 in1015.6 mb 0.00 in0.0 mm 0.00 in0.0 mm 0.00 in0.0 mm
05:05 PM 65.3°F18.5°C 47.3°F8.5°C 52% 4.0 mph SE6.4 kmh SE 8.9 mph14.3 kmh 29.99 in1015.6 mb 0.00 in0.0 mm 0.00 in0.0 mm 0.00 in0.0 mm
05:15 PM 64.6°F18.1°C 47.1°F8.4°C 53% 2.9 mph SE4.7 kmh SE 6.9 mph11.1 kmh 29.99 in1015.6 mb 0.00 in0.0 mm 0.00 in0.0 mm 0.00 in0.0 mm
05:25 PM 63.9°F17.7°C 47.3°F8.5°C 55% 2.0 mph SSE3.2 kmh SSE 6.0 mph9.7 kmh 29.99 in1015.6 mb 0.00 in0.0 mm 0.00 in0.0 mm 0.00 in0.0 mm
05:35 PM 63.1°F17.3°C 47.7°F8.7°C 57% 2.9 mph SW4.7 kmh SW 7.0 mph11.3 kmh 30.00 in1015.9 mb 0.00 in0.0 mm 0.00 in0.0 mm 0.00 in0.0 mm
05:45 PM 62.8°F17.1°C 47.8°F8.8°C 58% 2.0 mph S3.2 kmh S 4.0 mph6.4 kmh 30.00 in1015.9 mb 0.00 in0.0 mm 0.00 in0.0 mm 0.00 in0.0 mm
05:55 PM 62.6°F17.0°C 47.1°F8.4°C 57% 2.0 mph SW3.2 kmh SW 5.0 mph8.0 kmh 30.00 in1015.9 mb 0.00 in0.0 mm 0.00 in0.0 mm 0.00 in0.0 mm
06:05 PM 62.2°F16.8°C 47.7°F8.7°C 59% 2.0 mph WSW3.2 kmh WSW 6.0 mph9.7 kmh 30.01 in1016.3 mb 0.00 in0.0 mm 0.00 in0.0 mm 0.00 in0.0 mm
06:15 PM 61.7°F16.5°C 48.9°F9.4°C 63% 2.0 mph SW3.2 kmh SW 6.9 mph11.1 kmh 30.01 in1016.3 mb 0.00 in0.0 mm 0.00 in0.0 mm 0.00 in0.0 mm
06:25 PM 61.2°F16.2°C 49.3°F9.6°C 65% 0.9 mph SSW1.4 kmh SSW 2.9 mph4.7 kmh 30.01 in1016.3 mb 0.00 in0.0 mm 0.00 in0.0 mm 0.00 in0.0 mm
06:35 PM 60.6°F15.9°C 49.6°F9.8°C 67% 0.9 mph WSW1.4 kmh WSW 4.0 mph6.4 kmh 30.02 in1016.6 mb 0.00 in0.0 mm 0.00 in0.0 mm 0.00 in0.0 mm
06:45 PM 60.3°F15.7°C 50.0°F10.0°C 69% 0.9 mph SW1.4 kmh SW 3.0 mph4.8 kmh 30.03 in1016.9 mb 0.00 in0.0 mm 0.00 in0.0 mm 0.00 in0.0 mm
06:55 PM 59.7°F15.4°C 50.4°F10.2°C 71% 0.9 mph SW1.4 kmh SW 2.9 mph4.7 kmh 30.03 in1016.9 mb 0.00 in0.0 mm 0.00 in0.0 mm 0.00 in0.0 mm
07:05 PM 59.5°F15.3°C 50.5°F10.3°C 72% 0.9 mph SW1.4 kmh SW 4.0 mph6.4 kmh 30.03 in1016.9 mb 0.00 in0.0 mm 0.00 in0.0 mm 0.00 in0.0 mm
07:15 PM 59.4°F15.2°C 50.4°F10.2°C 72% 0.9 mph S1.4 kmh S 2.0 mph3.2 kmh 30.03 in1016.9 mb 0.00 in0.0 mm 0.00 in0.0 mm 0.00 in0.0 mm
07:25 PM 59.4°F15.2°C 50.7°F10.4°C 73% 0.9 mph W1.4 kmh W 2.9 mph4.7 kmh 30.03 in1016.9 mb 0.00 in0.0 mm 0.00 in0.0 mm 0.00 in0.0 mm
07:35 PM 59.0°F15.0°C 50.4°F10.2°C 73% Calm Calm 2.0 mph3.2 kmh 30.03 in1016.9 mb 0.00 in0.0 mm 0.00 in0.0 mm 0.00 in0.0 mm
07:45 PM 58.5°F14.7°C 50.2°F10.1°C 74% Calm Calm -- 30.03 in1016.9 mb 0.00 in0.0 mm 0.00 in0.0 mm 0.00 in0.0 mm
07:55 PM 57.7°F14.3°C 49.8°F9.9°C 75% Calm Calm -- 30.04 in1017.3 mb 0.00 in0.0 mm 0.00 in0.0 mm 0.00 in0.0 mm
08:05 PM 57.0°F13.9°C 49.5°F9.7°C 76% Calm Calm -- 30.04 in1017.3 mb 0.00 in0.0 mm 0.00 in0.0 mm 0.00 in0.0 mm
08:15 PM 56.3°F13.5°C 49.5°F9.7°C 78% Calm Calm 1.0 mph1.6 kmh 30.05 in1017.6 mb 0.00 in0.0 mm 0.00 in0.0 mm 0.00 in0.0 mm
08:25 PM 55.8°F13.2°C 48.9°F9.4°C 78% Calm Calm 0.9 mph1.4 kmh 30.05 in1017.6 mb 0.00 in0.0 mm 0.00 in0.0 mm 0.00 in0.0 mm
08:35 PM 55.2°F12.9°C 49.1°F9.5°C 80% 0.9 mph SE1.4 kmh SE 0.9 mph1.4 kmh 30.05 in1017.6 mb 0.00 in0.0 mm 0.00 in0.0 mm 0.00 in0.0 mm
08:45 PM 54.9°F12.7°C 48.7°F9.3°C 80% Calm Calm 0.9 mph1.4 kmh 30.06 in1017.9 mb 0.00 in0.0 mm 0.00 in0.0 mm 0.00 in0.0 mm
08:55 PM 54.3°F12.4°C 48.6°F9.2°C 81% Calm Calm 0.9 mph1.4 kmh 30.06 in1017.9 mb 0.00 in0.0 mm 0.00 in0.0 mm 0.00 in0.0 mm
09:05 PM 54.0°F12.2°C 48.2°F9.0°C 81% Calm Calm 1.0 mph1.6 kmh 30.06 in1017.9 mb 0.00 in0.0 mm 0.00 in0.0 mm 0.00 in0.0 mm
09:15 PM 53.4°F11.9°C 48.0°F8.9°C 82% Calm Calm 0.9 mph1.4 kmh 30.06 in1017.9 mb 0.00 in0.0 mm 0.00 in0.0 mm 0.00 in0.0 mm
09:25 PM 53.1°F11.7°C 48.0°F8.9°C 83% Calm Calm 0.9 mph1.4 kmh 30.06 in1017.9 mb 0.00 in0.0 mm 0.00 in0.0 mm 0.00 in0.0 mm
09:35 PM 53.1°F11.7°C 48.4°F9.1°C 84% 0.9 mph SE1.4 kmh SE 2.0 mph3.2 kmh 30.06 in1017.9 mb 0.00 in0.0 mm 0.00 in0.0 mm 0.00 in0.0 mm
09:45 PM 53.1°F11.7°C 48.4°F9.1°C 84% Calm Calm 2.0 mph3.2 kmh 30.06 in1017.9 mb 0.00 in0.0 mm 0.00 in0.0 mm 0.00 in0.0 mm
09:55 PM 52.5°F11.4°C 47.8°F8.8°C 84% Calm Calm 0.9 mph1.4 kmh 30.06 in1017.9 mb 0.00 in0.0 mm 0.00 in0.0 mm 0.00 in0.0 mm
10:05 PM 52.5°F11.4°C 48.2°F9.0°C 85% Calm Calm 0.9 mph1.4 kmh 30.06 in1017.9 mb 0.00 in0.0 mm 0.00 in0.0 mm 0.00 in0.0 mm
10:15 PM 52.3°F11.3°C 47.7°F8.7°C 84% Calm Calm 2.0 mph3.2 kmh 30.06 in1017.9 mb 0.00 in0.0 mm 0.00 in0.0 mm 0.00 in0.0 mm
10:25 PM 52.2°F11.2°C 47.8°F8.8°C 85% Calm Calm 2.0 mph3.2 kmh 30.06 in1017.9 mb 0.00 in0.0 mm 0.00 in0.0 mm 0.00 in0.0 mm
10:35 PM 52.0°F11.1°C 47.7°F8.7°C 85% Calm Calm 0.9 mph1.4 kmh 30.06 in1017.9 mb 0.00 in0.0 mm 0.00 in0.0 mm 0.00 in0.0 mm
10:45 PM 51.8°F11.0°C 47.7°F8.7°C 86% Calm Calm 0.9 mph1.4 kmh 30.06 in1017.9 mb 0.00 in0.0 mm 0.00 in0.0 mm 0.00 in0.0 mm
10:55 PM 51.6°F10.9°C 47.5°F8.6°C 86% Calm Calm -- 30.06 in1017.9 mb 0.00 in0.0 mm 0.00 in0.0 mm 0.00 in0.0 mm
11:05 PM 51.1°F10.6°C 47.1°F8.4°C 86% Calm Calm 2.9 mph4.7 kmh 30.06 in1017.9 mb 0.00 in0.0 mm 0.00 in0.0 mm 0.00 in0.0 mm
11:15 PM 50.7°F10.4°C 46.8°F8.2°C 86% 2.0 mph NE3.2 kmh NE 2.9 mph4.7 kmh 30.06 in1017.9 mb 0.00 in0.0 mm 0.00 in0.0 mm 0.00 in0.0 mm
11:25 PM 50.7°F10.4°C 46.8°F8.2°C 86% 0.9 mph ENE1.4 kmh ENE 2.9 mph4.7 kmh 30.05 in1017.6 mb 0.00 in0.0 mm 0.00 in0.0 mm 0.00 in0.0 mm
11:35 PM 50.7°F10.4°C 46.8°F8.2°C 86% 0.9 mph ENE1.4 kmh ENE 2.9 mph4.7 kmh 30.05 in1017.6 mb 0.00 in0.0 mm 0.00 in0.0 mm 0.00 in0.0 mm
11:45 PM 50.5°F10.3°C 46.8°F8.2°C 87% Calm Calm 0.9 mph1.4 kmh 30.06 in1017.9 mb 0.00 in0.0 mm 0.00 in0.0 mm 0.00 in0.0 mm
11:55 PM 50.5°F10.3°C 46.8°F8.2°C 87% Calm Calm 0.9 mph1.4 kmh 30.06 in1017.9 mb 0.00 in0.0 mm 0.00 in0.0 mm 0.00 in0.0 mm